sensor_id;sensor_type;location;lat;lon;timestamp;P1;durP1;ratioP1;P2;durP2;ratioP2
66478;SDS011;53294;47.912;13.526;2022-11-11T00:01:02;3.33;;;1.90;;
66478;SDS011;53294;47.912;13.526;2022-11-11T00:03:37;2.22;;;1.73;;
66478;SDS011;53294;47.912;13.526;2022-11-11T00:06:05;2.63;;;1.70;;
66478;SDS011;53294;47.912;13.526;2022-11-11T00:08:34;2.60;;;1.80;;
66478;SDS011;53294;47.912;13.526;2022-11-11T00:11:05;2.65;;;1.92;;
66478;SDS011;53294;47.912;13.526;2022-11-11T00:13:36;2.33;;;1.70;;
66478;SDS011;53294;47.912;13.526;2022-11-11T00:16:07;2.38;;;1.90;;
66478;SDS011;53294;47.912;13.526;2022-11-11T00:18:45;2.53;;;1.55;;
66478;SDS011;53294;47.912;13.526;2022-11-11T00:21:30;1.98;;;1.58;;
66478;SDS011;53294;47.912;13.526;2022-11-11T00:27:10;2.67;;;2.08;;
66478;SDS011;53294;47.912;13.526;2022-11-11T00:29:38;2.38;;;1.40;;
66478;SDS011;53294;47.912;13.526;2022-11-11T00:32:05;3.88;;;1.65;;
66478;SDS011;53294;47.912;13.526;2022-11-11T00:37:34;2.08;;;1.60;;
66478;SDS011;53294;47.912;13.526;2022-11-11T00:40:01;2.83;;;1.67;;
66478;SDS011;53294;47.912;13.526;2022-11-11T00:42:28;3.10;;;1.63;;
66478;SDS011;53294;47.912;13.526;2022-11-11T00:44:55;3.05;;;1.95;;
66478;SDS011;53294;47.912;13.526;2022-11-11T00:47:22;3.05;;;1.83;;
66478;SDS011;53294;47.912;13.526;2022-11-11T00:50:26;2.45;;;1.70;;
66478;SDS011;53294;47.912;13.526;2022-11-11T00:53:17;3.20;;;2.00;;
66478;SDS011;53294;47.912;13.526;2022-11-11T00:55:52;2.55;;;1.80;;
66478;SDS011;53294;47.912;13.526;2022-11-11T00:58:19;3.60;;;2.22;;
66478;SDS011;53294;47.912;13.526;2022-11-11T01:00:49;2.88;;;1.70;;
66478;SDS011;53294;47.912;13.526;2022-11-11T01:03:19;3.22;;;2.00;;
66478;SDS011;53294;47.912;13.526;2022-11-11T01:05:46;3.95;;;1.95;;
66478;SDS011;53294;47.912;13.526;2022-11-11T01:08:13;3.33;;;2.00;;
66478;SDS011;53294;47.912;13.526;2022-11-11T01:10:40;3.75;;;2.40;;
66478;SDS011;53294;47.912;13.526;2022-11-11T01:15:45;3.15;;;1.77;;
66478;SDS011;53294;47.912;13.526;2022-11-11T01:18:15;2.65;;;1.75;;
66478;SDS011;53294;47.912;13.526;2022-11-11T01:20:43;2.42;;;1.52;;
66478;SDS011;53294;47.912;13.526;2022-11-11T01:23:11;2.92;;;1.70;;
66478;SDS011;53294;47.912;13.526;2022-11-11T01:25:39;2.45;;;1.73;;
66478;SDS011;53294;47.912;13.526;2022-11-11T01:28:08;4.20;;;1.67;;
66478;SDS011;53294;47.912;13.526;2022-11-11T01:30:35;4.72;;;2.35;;
66478;SDS011;53294;47.912;13.526;2022-11-11T01:33:02;3.20;;;1.80;;
66478;SDS011;53294;47.912;13.526;2022-11-11T01:35:30;3.58;;;2.20;;
66478;SDS011;53294;47.912;13.526;2022-11-11T01:37:57;3.60;;;2.00;;
66478;SDS011;53294;47.912;13.526;2022-11-11T01:40:25;2.20;;;1.80;;
66478;SDS011;53294;47.912;13.526;2022-11-11T01:42:53;2.38;;;1.73;;
66478;SDS011;53294;47.912;13.526;2022-11-11T01:45:44;2.63;;;1.75;;
66478;SDS011;53294;47.912;13.526;2022-11-11T01:48:19;2.38;;;1.75;;
66478;SDS011;53294;47.912;13.526;2022-11-11T01:51:12;2.88;;;1.80;;
66478;SDS011;53294;47.912;13.526;2022-11-11T01:53:47;2.92;;;1.90;;
66478;SDS011;53294;47.912;13.526;2022-11-11T01:56:16;2.55;;;1.80;;
66478;SDS011;53294;47.912;13.526;2022-11-11T01:58:43;2.92;;;1.98;;
66478;SDS011;53294;47.912;13.526;2022-11-11T02:01:09;2.67;;;1.80;;
66478;SDS011;53294;47.912;13.526;2022-11-11T02:03:40;1.95;;;1.52;;
66478;SDS011;53294;47.912;13.526;2022-11-11T02:06:27;3.00;;;2.10;;
66478;SDS011;53294;47.912;13.526;2022-11-11T02:08:54;3.10;;;2.00;;
66478;SDS011;53294;47.912;13.526;2022-11-11T02:11:21;2.95;;;2.20;;
66478;SDS011;53294;47.912;13.526;2022-11-11T02:14:09;3.22;;;2.30;;
66478;SDS011;53294;47.912;13.526;2022-11-11T02:16:54;2.17;;;1.90;;
66478;SDS011;53294;47.912;13.526;2022-11-11T02:19:27;2.78;;;1.80;;
66478;SDS011;53294;47.912;13.526;2022-11-11T02:22:01;3.03;;;1.95;;
66478;SDS011;53294;47.912;13.526;2022-11-11T02:24:28;2.47;;;1.60;;
66478;SDS011;53294;47.912;13.526;2022-11-11T02:26:56;2.17;;;1.70;;
66478;SDS011;53294;47.912;13.526;2022-11-11T02:29:24;3.58;;;1.80;;
66478;SDS011;53294;47.912;13.526;2022-11-11T02:31:51;4.40;;;2.08;;
66478;SDS011;53294;47.912;13.526;2022-11-11T02:34:18;3.35;;;1.80;;
66478;SDS011;53294;47.912;13.526;2022-11-11T02:36:45;2.60;;;1.88;;
66478;SDS011;53294;47.912;13.526;2022-11-11T02:39:11;3.15;;;2.08;;
66478;SDS011;53294;47.912;13.526;2022-11-11T02:41:43;3.40;;;2.03;;
66478;SDS011;53294;47.912;13.526;2022-11-11T02:44:25;1.85;;;1.50;;
66478;SDS011;53294;47.912;13.526;2022-11-11T02:46:52;2.97;;;1.92;;
66478;SDS011;53294;47.912;13.526;2022-11-11T02:49:19;2.45;;;1.98;;
66478;SDS011;53294;47.912;13.526;2022-11-11T02:51:46;3.00;;;1.98;;
66478;SDS011;53294;47.912;13.526;2022-11-11T02:54:13;2.45;;;1.70;;
66478;SDS011;53294;47.912;13.526;2022-11-11T02:56:40;3.38;;;2.13;;
66478;SDS011;53294;47.912;13.526;2022-11-11T02:59:30;3.90;;;2.30;;
66478;SDS011;53294;47.912;13.526;2022-11-11T03:01:57;3.13;;;1.88;;
66478;SDS011;53294;47.912;13.526;2022-11-11T03:04:24;3.67;;;2.30;;
66478;SDS011;53294;47.912;13.526;2022-11-11T03:06:50;3.10;;;1.95;;
66478;SDS011;53294;47.912;13.526;2022-11-11T03:09:17;3.67;;;2.22;;
66478;SDS011;53294;47.912;13.526;2022-11-11T03:11:44;2.55;;;1.75;;
66478;SDS011;53294;47.912;13.526;2022-11-11T03:14:11;2.75;;;1.80;;
66478;SDS011;53294;47.912;13.526;2022-11-11T03:16:37;2.67;;;2.00;;
66478;SDS011;53294;47.912;13.526;2022-11-11T03:19:23;2.70;;;2.03;;
66478;SDS011;53294;47.912;13.526;2022-11-11T03:21:50;2.70;;;1.98;;
66478;SDS011;53294;47.912;13.526;2022-11-11T03:24:36;2.88;;;1.90;;
66478;SDS011;53294;47.912;13.526;2022-11-11T03:27:21;3.35;;;2.10;;
66478;SDS011;53294;47.912;13.526;2022-11-11T03:29:48;3.38;;;2.30;;
66478;SDS011;53294;47.912;13.526;2022-11-11T03:32:15;3.88;;;2.45;;
66478;SDS011;53294;47.912;13.526;2022-11-11T03:34:41;2.50;;;1.88;;
66478;SDS011;53294;47.912;13.526;2022-11-11T03:37:09;3.15;;;1.73;;
66478;SDS011;53294;47.912;13.526;2022-11-11T03:39:55;2.35;;;1.73;;
66478;SDS011;53294;47.912;13.526;2022-11-11T03:42:21;2.85;;;1.83;;
66478;SDS011;53294;47.912;13.526;2022-11-11T03:44:48;2.30;;;1.70;;
66478;SDS011;53294;47.912;13.526;2022-11-11T03:47:15;2.55;;;1.80;;
66478;SDS011;53294;47.912;13.526;2022-11-11T03:49:41;2.38;;;1.90;;
66478;SDS011;53294;47.912;13.526;2022-11-11T03:52:11;3.50;;;1.88;;
66478;SDS011;53294;47.912;13.526;2022-11-11T03:54:38;3.25;;;2.10;;
66478;SDS011;53294;47.912;13.526;2022-11-11T03:57:05;2.40;;;1.70;;
66478;SDS011;53294;47.912;13.526;2022-11-11T03:59:50;2.42;;;1.92;;
66478;SDS011;53294;47.912;13.526;2022-11-11T04:02:17;3.03;;;1.80;;
66478;SDS011;53294;47.912;13.526;2022-11-11T04:05:02;2.42;;;1.80;;
66478;SDS011;53294;47.912;13.526;2022-11-11T04:07:49;4.60;;;2.28;;
66478;SDS011;53294;47.912;13.526;2022-11-11T04:10:35;2.75;;;1.90;;
66478;SDS011;53294;47.912;13.526;2022-11-11T04:13:02;4.28;;;2.45;;
66478;SDS011;53294;47.912;13.526;2022-11-11T04:16:09;3.05;;;1.90;;
66478;SDS011;53294;47.912;13.526;2022-11-11T04:18:36;2.95;;;1.90;;
66478;SDS011;53294;47.912;13.526;2022-11-11T04:21:22;2.50;;;1.70;;
66478;SDS011;53294;47.912;13.526;2022-11-11T04:24:14;2.42;;;1.63;;
66478;SDS011;53294;47.912;13.526;2022-11-11T04:27:07;2.35;;;1.70;;
66478;SDS011;53294;47.912;13.526;2022-11-11T04:29:35;3.58;;;1.80;;
66478;SDS011;53294;47.912;13.526;2022-11-11T04:32:09;3.00;;;1.70;;
66478;SDS011;53294;47.912;13.526;2022-11-11T04:37:27;1.73;;;1.42;;
66478;SDS011;53294;47.912;13.526;2022-11-11T04:39:57;3.72;;;2.22;;
66478;SDS011;53294;47.912;13.526;2022-11-11T04:42:42;2.40;;;1.60;;
66478;SDS011;53294;47.912;13.526;2022-11-11T04:45:09;1.40;;;1.30;;
66478;SDS011;53294;47.912;13.526;2022-11-11T04:48:05;3.13;;;1.63;;
66478;SDS011;53294;47.912;13.526;2022-11-11T04:50:35;3.20;;;1.77;;
66478;SDS011;53294;47.912;13.526;2022-11-11T04:53:04;2.50;;;1.73;;
66478;SDS011;53294;47.912;13.526;2022-11-11T04:55:33;3.42;;;1.40;;
66478;SDS011;53294;47.912;13.526;2022-11-11T04:58:19;2.65;;;1.70;;
66478;SDS011;53294;47.912;13.526;2022-11-11T05:00:47;3.63;;;1.80;;
66478;SDS011;53294;47.912;13.526;2022-11-11T05:03:14;2.72;;;1.85;;
66478;SDS011;53294;47.912;13.526;2022-11-11T05:05:45;2.42;;;1.70;;
66478;SDS011;53294;47.912;13.526;2022-11-11T05:08:31;3.70;;;1.70;;
66478;SDS011;53294;47.912;13.526;2022-11-11T05:11:17;2.58;;;1.77;;
66478;SDS011;53294;47.912;13.526;2022-11-11T05:13:44;3.97;;;2.10;;
66478;SDS011;53294;47.912;13.526;2022-11-11T05:16:31;2.95;;;1.77;;
66478;SDS011;53294;47.912;13.526;2022-11-11T05:19:20;3.28;;;1.92;;
66478;SDS011;53294;47.912;13.526;2022-11-11T05:24:45;2.65;;;1.85;;
66478;SDS011;53294;47.912;13.526;2022-11-11T05:27:30;2.85;;;1.90;;
66478;SDS011;53294;47.912;13.526;2022-11-11T05:29:56;2.00;;;1.50;;
66478;SDS011;53294;47.912;13.526;2022-11-11T05:32:23;3.25;;;1.55;;
66478;SDS011;53294;47.912;13.526;2022-11-11T05:34:51;2.47;;;1.80;;
66478;SDS011;53294;47.912;13.526;2022-11-11T05:37:18;3.38;;;2.55;;
66478;SDS011;53294;47.912;13.526;2022-11-11T05:39:45;3.08;;;2.40;;
66478;SDS011;53294;47.912;13.526;2022-11-11T05:42:12;3.30;;;2.58;;
66478;SDS011;53294;47.912;13.526;2022-11-11T05:44:38;2.92;;;2.30;;
66478;SDS011;53294;47.912;13.526;2022-11-11T05:47:05;4.68;;;2.65;;
66478;SDS011;53294;47.912;13.526;2022-11-11T05:49:32;3.55;;;2.55;;
66478;SDS011;53294;47.912;13.526;2022-11-11T05:51:59;4.57;;;2.30;;
66478;SDS011;53294;47.912;13.526;2022-11-11T05:54:25;3.38;;;2.40;;
66478;SDS011;53294;47.912;13.526;2022-11-11T05:56:52;6.05;;;3.13;;
66478;SDS011;53294;47.912;13.526;2022-11-11T05:59:19;6.10;;;3.75;;
66478;SDS011;53294;47.912;13.526;2022-11-11T06:01:45;5.47;;;3.20;;
66478;SDS011;53294;47.912;13.526;2022-11-11T06:04:12;5.00;;;3.30;;
66478;SDS011;53294;47.912;13.526;2022-11-11T06:06:43;5.32;;;3.13;;
66478;SDS011;53294;47.912;13.526;2022-11-11T06:09:10;4.88;;;3.10;;
66478;SDS011;53294;47.912;13.526;2022-11-11T06:11:37;4.97;;;2.53;;
66478;SDS011;53294;47.912;13.526;2022-11-11T06:14:04;3.63;;;2.30;;
66478;SDS011;53294;47.912;13.526;2022-11-11T06:16:31;4.10;;;2.10;;
66478;SDS011;53294;47.912;13.526;2022-11-11T06:18:57;6.55;;;2.67;;
66478;SDS011;53294;47.912;13.526;2022-11-11T06:21:25;3.53;;;2.38;;
66478;SDS011;53294;47.912;13.526;2022-11-11T06:23:52;3.28;;;2.30;;
66478;SDS011;53294;47.912;13.526;2022-11-11T06:26:19;4.45;;;2.28;;
66478;SDS011;53294;47.912;13.526;2022-11-11T06:31:24;4.15;;;2.40;;
66478;SDS011;53294;47.912;13.526;2022-11-11T06:33:52;2.72;;;1.80;;
66478;SDS011;53294;47.912;13.526;2022-11-11T06:36:20;4.93;;;3.03;;
66478;SDS011;53294;47.912;13.526;2022-11-11T06:38:47;4.75;;;2.90;;
66478;SDS011;53294;47.912;13.526;2022-11-11T06:41:14;52.83;;;34.53;;
66478;SDS011;53294;47.912;13.526;2022-11-11T06:43:41;18.05;;;13.05;;
66478;SDS011;53294;47.912;13.526;2022-11-11T06:46:26;18.83;;;12.98;;
66478;SDS011;53294;47.912;13.526;2022-11-11T06:48:53;11.50;;;7.25;;
66478;SDS011;53294;47.912;13.526;2022-11-11T06:51:20;8.13;;;5.45;;
66478;SDS011;53294;47.912;13.526;2022-11-11T06:53:46;34.50;;;26.88;;
66478;SDS011;53294;47.912;13.526;2022-11-11T06:56:13;9.65;;;8.02;;
66478;SDS011;53294;47.912;13.526;2022-11-11T06:58:40;7.45;;;4.93;;
66478;SDS011;53294;47.912;13.526;2022-11-11T07:01:07;8.15;;;5.93;;
66478;SDS011;53294;47.912;13.526;2022-11-11T07:03:34;6.40;;;4.00;;
66478;SDS011;53294;47.912;13.526;2022-11-11T07:06:02;4.60;;;3.15;;
66478;SDS011;53294;47.912;13.526;2022-11-11T07:08:30;5.13;;;2.80;;
66478;SDS011;53294;47.912;13.526;2022-11-11T07:10:57;5.22;;;2.97;;
66478;SDS011;53294;47.912;13.526;2022-11-11T07:13:32;4.13;;;2.88;;
66478;SDS011;53294;47.912;13.526;2022-11-11T07:15:59;5.03;;;3.33;;
66478;SDS011;53294;47.912;13.526;2022-11-11T07:18:25;5.55;;;3.28;;
66478;SDS011;53294;47.912;13.526;2022-11-11T07:20:52;5.45;;;2.92;;
66478;SDS011;53294;47.912;13.526;2022-11-11T07:23:19;4.75;;;3.20;;
66478;SDS011;53294;47.912;13.526;2022-11-11T07:25:46;5.25;;;3.10;;
66478;SDS011;53294;47.912;13.526;2022-11-11T07:28:12;3.83;;;2.40;;
66478;SDS011;53294;47.912;13.526;2022-11-11T07:30:39;5.50;;;3.00;;
66478;SDS011;53294;47.912;13.526;2022-11-11T07:33:06;3.55;;;2.30;;
66478;SDS011;53294;47.912;13.526;2022-11-11T07:35:33;3.42;;;2.40;;
66478;SDS011;53294;47.912;13.526;2022-11-11T07:37:59;3.40;;;2.10;;
66478;SDS011;53294;47.912;13.526;2022-11-11T07:40:26;3.42;;;2.47;;
66478;SDS011;53294;47.912;13.526;2022-11-11T07:42:52;3.70;;;2.47;;
66478;SDS011;53294;47.912;13.526;2022-11-11T07:45:19;6.20;;;3.22;;
66478;SDS011;53294;47.912;13.526;2022-11-11T07:47:46;5.68;;;3.90;;
66478;SDS011;53294;47.912;13.526;2022-11-11T07:50:12;4.35;;;2.85;;
66478;SDS011;53294;47.912;13.526;2022-11-11T07:52:39;7.20;;;4.10;;
66478;SDS011;53294;47.912;13.526;2022-11-11T07:55:06;4.03;;;2.90;;
66478;SDS011;53294;47.912;13.526;2022-11-11T07:57:34;4.93;;;2.78;;
66478;SDS011;53294;47.912;13.526;2022-11-11T08:00:01;5.30;;;3.22;;
66478;SDS011;53294;47.912;13.526;2022-11-11T08:02:29;5.57;;;3.72;;
66478;SDS011;53294;47.912;13.526;2022-11-11T08:04:55;5.78;;;3.60;;
66478;SDS011;53294;47.912;13.526;2022-11-11T08:07:22;5.68;;;3.47;;
66478;SDS011;53294;47.912;13.526;2022-11-11T08:09:50;5.28;;;2.92;;
66478;SDS011;53294;47.912;13.526;2022-11-11T08:12:17;6.70;;;3.70;;
66478;SDS011;53294;47.912;13.526;2022-11-11T08:15:02;5.10;;;3.40;;
66478;SDS011;53294;47.912;13.526;2022-11-11T08:17:36;6.00;;;2.67;;
66478;SDS011;53294;47.912;13.526;2022-11-11T08:20:05;5.20;;;2.55;;
66478;SDS011;53294;47.912;13.526;2022-11-11T08:22:35;5.40;;;2.90;;
66478;SDS011;53294;47.912;13.526;2022-11-11T08:25:03;5.22;;;2.97;;
66478;SDS011;53294;47.912;13.526;2022-11-11T08:27:35;4.20;;;2.30;;
66478;SDS011;53294;47.912;13.526;2022-11-11T08:30:03;3.83;;;2.60;;
66478;SDS011;53294;47.912;13.526;2022-11-11T08:32:30;4.20;;;2.40;;
66478;SDS011;53294;47.912;13.526;2022-11-11T08:34:57;5.32;;;2.67;;
66478;SDS011;53294;47.912;13.526;2022-11-11T08:37:24;4.15;;;2.88;;
66478;SDS011;53294;47.912;13.526;2022-11-11T08:39:50;3.53;;;2.40;;
66478;SDS011;53294;47.912;13.526;2022-11-11T08:42:18;3.80;;;2.70;;
66478;SDS011;53294;47.912;13.526;2022-11-11T08:44:44;3.38;;;2.28;;
66478;SDS011;53294;47.912;13.526;2022-11-11T08:47:12;4.97;;;2.67;;
66478;SDS011;53294;47.912;13.526;2022-11-11T08:49:39;3.05;;;1.90;;
66478;SDS011;53294;47.912;13.526;2022-11-11T08:52:05;4.03;;;2.20;;
66478;SDS011;53294;47.912;13.526;2022-11-11T08:54:32;3.40;;;2.10;;
66478;SDS011;53294;47.912;13.526;2022-11-11T08:56:59;2.90;;;2.15;;
66478;SDS011;53294;47.912;13.526;2022-11-11T08:59:25;2.30;;;1.80;;
66478;SDS011;53294;47.912;13.526;2022-11-11T09:01:52;2.53;;;1.85;;
66478;SDS011;53294;47.912;13.526;2022-11-11T09:04:19;3.10;;;2.00;;
66478;SDS011;53294;47.912;13.526;2022-11-11T09:07:06;2.58;;;1.90;;
66478;SDS011;53294;47.912;13.526;2022-11-11T09:09:34;2.83;;;1.48;;
66478;SDS011;53294;47.912;13.526;2022-11-11T09:12:00;3.65;;;1.67;;
66478;SDS011;53294;47.912;13.526;2022-11-11T09:14:28;4.30;;;1.70;;
66478;SDS011;53294;47.912;13.526;2022-11-11T09:16:54;3.58;;;2.00;;
66478;SDS011;53294;47.912;13.526;2022-11-11T09:19:21;4.22;;;1.80;;
66478;SDS011;53294;47.912;13.526;2022-11-11T09:21:49;5.28;;;3.05;;
66478;SDS011;53294;47.912;13.526;2022-11-11T09:24:17;3.40;;;2.00;;
66478;SDS011;53294;47.912;13.526;2022-11-11T09:26:45;2.90;;;1.98;;
66478;SDS011;53294;47.912;13.526;2022-11-11T09:29:13;3.97;;;1.60;;
66478;SDS011;53294;47.912;13.526;2022-11-11T09:31:40;3.97;;;1.85;;
66478;SDS011;53294;47.912;13.526;2022-11-11T09:34:11;2.72;;;1.75;;
66478;SDS011;53294;47.912;13.526;2022-11-11T09:36:39;3.88;;;1.90;;
66478;SDS011;53294;47.912;13.526;2022-11-11T09:39:06;4.28;;;2.00;;
66478;SDS011;53294;47.912;13.526;2022-11-11T09:44:56;4.85;;;1.83;;
66478;SDS011;53294;47.912;13.526;2022-11-11T09:47:46;3.97;;;1.80;;
66478;SDS011;53294;47.912;13.526;2022-11-11T09:50:28;2.58;;;1.60;;
66478;SDS011;53294;47.912;13.526;2022-11-11T09:53:42;2.72;;;1.58;;
66478;SDS011;53294;47.912;13.526;2022-11-11T09:56:20;2.40;;;1.58;;
66478;SDS011;53294;47.912;13.526;2022-11-11T09:59:02;3.70;;;1.90;;
66478;SDS011;53294;47.912;13.526;2022-11-11T10:01:39;3.50;;;1.80;;
66478;SDS011;53294;47.912;13.526;2022-11-11T10:06:42;2.33;;;1.20;;
66478;SDS011;53294;47.912;13.526;2022-11-11T10:12:20;6.70;;;2.70;;
66478;SDS011;53294;47.912;13.526;2022-11-11T10:14:54;8.38;;;3.33;;
66478;SDS011;53294;47.912;13.526;2022-11-11T10:17:37;7.75;;;3.22;;
66478;SDS011;53294;47.912;13.526;2022-11-11T10:20:09;9.50;;;4.15;;
66478;SDS011;53294;47.912;13.526;2022-11-11T10:22:39;7.53;;;4.13;;
66478;SDS011;53294;47.912;13.526;2022-11-11T10:27:41;10.45;;;4.60;;
66478;SDS011;53294;47.912;13.526;2022-11-11T10:30:16;8.55;;;4.93;;
66478;SDS011;53294;47.912;13.526;2022-11-11T10:35:25;8.70;;;4.43;;
66478;SDS011;53294;47.912;13.526;2022-11-11T10:40:53;6.32;;;2.47;;
66478;SDS011;53294;47.912;13.526;2022-11-11T10:43:24;4.93;;;2.70;;
66478;SDS011;53294;47.912;13.526;2022-11-11T10:51:23;5.68;;;2.55;;
66478;SDS011;53294;47.912;13.526;2022-11-11T10:57:09;6.50;;;2.78;;
66478;SDS011;53294;47.912;13.526;2022-11-11T10:59:42;4.88;;;2.80;;
66478;SDS011;53294;47.912;13.526;2022-11-11T11:02:26;4.63;;;2.70;;
66478;SDS011;53294;47.912;13.526;2022-11-11T11:05:19;4.35;;;2.65;;
66478;SDS011;53294;47.912;13.526;2022-11-11T11:07:52;4.32;;;2.60;;
66478;SDS011;53294;47.912;13.526;2022-11-11T11:10:35;5.38;;;2.80;;
66478;SDS011;53294;47.912;13.526;2022-11-11T11:13:07;3.70;;;2.47;;
66478;SDS011;53294;47.912;13.526;2022-11-11T11:15:56;5.60;;;2.33;;
66478;SDS011;53294;47.912;13.526;2022-11-11T11:18:28;5.32;;;2.40;;
66478;SDS011;53294;47.912;13.526;2022-11-11T11:26:07;7.78;;;4.82;;
66478;SDS011;53294;47.912;13.526;2022-11-11T11:28:52;9.18;;;5.22;;
66478;SDS011;53294;47.912;13.526;2022-11-11T11:31:36;9.00;;;5.38;;
66478;SDS011;53294;47.912;13.526;2022-11-11T11:34:04;9.05;;;4.93;;
66478;SDS011;53294;47.912;13.526;2022-11-11T11:36:31;9.82;;;5.40;;
66478;SDS011;53294;47.912;13.526;2022-11-11T11:38:58;8.55;;;5.28;;
66478;SDS011;53294;47.912;13.526;2022-11-11T11:46:54;6.57;;;4.10;;
66478;SDS011;53294;47.912;13.526;2022-11-11T11:55:19;9.82;;;5.28;;
66478;SDS011;53294;47.912;13.526;2022-11-11T12:00:28;7.43;;;4.75;;
66478;SDS011;53294;47.912;13.526;2022-11-11T12:06:10;9.95;;;4.60;;
66478;SDS011;53294;47.912;13.526;2022-11-11T12:11:19;6.82;;;4.30;;
66478;SDS011;53294;47.912;13.526;2022-11-11T12:13:54;5.72;;;3.78;;
66478;SDS011;53294;47.912;13.526;2022-11-11T12:16:46;6.55;;;3.70;;
66478;SDS011;53294;47.912;13.526;2022-11-11T12:27:53;6.00;;;3.58;;
66478;SDS011;53294;47.912;13.526;2022-11-11T12:30:24;6.07;;;3.60;;
66478;SDS011;53294;47.912;13.526;2022-11-11T12:52:11;7.70;;;4.63;;
66478;SDS011;53294;47.912;13.526;2022-11-11T12:54:55;6.85;;;3.80;;
66478;SDS011;53294;47.912;13.526;2022-11-11T12:57:38;6.30;;;4.05;;
66478;SDS011;53294;47.912;13.526;2022-11-11T13:00:11;5.60;;;3.30;;
66478;SDS011;53294;47.912;13.526;2022-11-11T13:02:58;6.63;;;3.38;;
66478;SDS011;53294;47.912;13.526;2022-11-11T13:16:36;6.13;;;3.33;;
66478;SDS011;53294;47.912;13.526;2022-11-11T13:19:10;5.90;;;3.92;;
66478;SDS011;53294;47.912;13.526;2022-11-11T13:21:59;6.25;;;3.78;;
66478;SDS011;53294;47.912;13.526;2022-11-11T13:24:32;5.25;;;3.40;;
66478;SDS011;53294;47.912;13.526;2022-11-11T13:27:15;6.63;;;3.78;;
66478;SDS011;53294;47.912;13.526;2022-11-11T13:32:32;6.18;;;4.05;;
66478;SDS011;53294;47.912;13.526;2022-11-11T13:37:49;8.90;;;4.50;;
66478;SDS011;53294;47.912;13.526;2022-11-11T13:42:59;7.40;;;3.90;;
66478;SDS011;53294;47.912;13.526;2022-11-11T13:45:29;6.97;;;4.50;;
66478;SDS011;53294;47.912;13.526;2022-11-11T13:48:00;11.63;;;4.80;;
66478;SDS011;53294;47.912;13.526;2022-11-11T13:50:29;7.93;;;4.40;;
66478;SDS011;53294;47.912;13.526;2022-11-11T13:53:10;6.93;;;4.63;;
66478;SDS011;53294;47.912;13.526;2022-11-11T13:55:52;6.53;;;3.90;;
66478;SDS011;53294;47.912;13.526;2022-11-11T14:01:01;7.65;;;4.70;;
66478;SDS011;53294;47.912;13.526;2022-11-11T14:03:32;8.35;;;5.07;;
66478;SDS011;53294;47.912;13.526;2022-11-11T14:13:51;6.32;;;4.57;;
66478;SDS011;53294;47.912;13.526;2022-11-11T14:24:22;6.97;;;4.72;;
66478;SDS011;53294;47.912;13.526;2022-11-11T14:29:51;11.48;;;6.43;;
66478;SDS011;53294;47.912;13.526;2022-11-11T14:40:28;8.32;;;6.10;;
66478;SDS011;53294;47.912;13.526;2022-11-11T14:42:57;8.48;;;5.50;;
66478;SDS011;53294;47.912;13.526;2022-11-11T14:47:55;10.27;;;6.38;;
66478;SDS011;53294;47.912;13.526;2022-11-11T14:52:59;21.20;;;12.40;;
66478;SDS011;53294;47.912;13.526;2022-11-11T14:55:34;17.58;;;10.27;;
66478;SDS011;53294;47.912;13.526;2022-11-11T14:58:12;8.20;;;5.65;;
66478;SDS011;53294;47.912;13.526;2022-11-11T15:00:57;6.63;;;4.47;;
66478;SDS011;53294;47.912;13.526;2022-11-11T15:03:31;9.85;;;5.80;;
66478;SDS011;53294;47.912;13.526;2022-11-11T15:06:16;10.43;;;5.60;;
66478;SDS011;53294;47.912;13.526;2022-11-11T15:30:05;9.63;;;7.13;;
66478;SDS011;53294;47.912;13.526;2022-11-11T15:32:42;8.65;;;5.63;;
66478;SDS011;53294;47.912;13.526;2022-11-11T15:35:21;7.95;;;5.30;;
66478;SDS011;53294;47.912;13.526;2022-11-11T15:37:56;8.05;;;5.43;;
66478;SDS011;53294;47.912;13.526;2022-11-11T15:40:29;7.18;;;4.80;;
66478;SDS011;53294;47.912;13.526;2022-11-11T15:43:14;6.78;;;4.95;;
66478;SDS011;53294;47.912;13.526;2022-11-11T15:45:45;8.85;;;5.25;;
66478;SDS011;53294;47.912;13.526;2022-11-11T15:48:16;7.90;;;5.68;;
66478;SDS011;53294;47.912;13.526;2022-11-11T15:50:48;13.85;;;8.60;;
66478;SDS011;53294;47.912;13.526;2022-11-11T15:53:20;12.13;;;8.85;;
66478;SDS011;53294;47.912;13.526;2022-11-11T15:55:52;8.50;;;5.97;;
66478;SDS011;53294;47.912;13.526;2022-11-11T15:58:24;8.15;;;5.70;;
66478;SDS011;53294;47.912;13.526;2022-11-11T16:00:54;9.30;;;5.40;;
66478;SDS011;53294;47.912;13.526;2022-11-11T16:03:25;6.68;;;4.85;;
66478;SDS011;53294;47.912;13.526;2022-11-11T16:05:57;6.90;;;4.78;;
66478;SDS011;53294;47.912;13.526;2022-11-11T16:08:24;7.22;;;5.00;;
66478;SDS011;53294;47.912;13.526;2022-11-11T16:10:53;7.55;;;5.20;;
66478;SDS011;53294;47.912;13.526;2022-11-11T16:13:27;7.45;;;5.10;;
66478;SDS011;53294;47.912;13.526;2022-11-11T16:16:03;10.15;;;6.90;;
66478;SDS011;53294;47.912;13.526;2022-11-11T16:18:44;15.00;;;11.18;;
66478;SDS011;53294;47.912;13.526;2022-11-11T16:21:21;12.27;;;9.75;;
66478;SDS011;53294;47.912;13.526;2022-11-11T16:23:55;9.40;;;6.53;;
66478;SDS011;53294;47.912;13.526;2022-11-11T16:26:23;12.02;;;7.32;;
66478;SDS011;53294;47.912;13.526;2022-11-11T16:28:51;9.10;;;6.07;;
66478;SDS011;53294;47.912;13.526;2022-11-11T16:39:25;9.85;;;6.50;;
66478;SDS011;53294;47.912;13.526;2022-11-11T16:41:53;8.27;;;5.82;;
66478;SDS011;53294;47.912;13.526;2022-11-11T16:47:00;8.63;;;6.22;;
66478;SDS011;53294;47.912;13.526;2022-11-11T16:49:36;9.13;;;6.22;;
66478;SDS011;53294;47.912;13.526;2022-11-11T16:52:12;9.50;;;5.93;;
66478;SDS011;53294;47.912;13.526;2022-11-11T16:54:53;9.90;;;6.82;;
66478;SDS011;53294;47.912;13.526;2022-11-11T16:57:25;11.40;;;7.05;;
66478;SDS011;53294;47.912;13.526;2022-11-11T16:59:56;12.02;;;6.18;;
66478;SDS011;53294;47.912;13.526;2022-11-11T17:02:26;9.60;;;6.40;;
66478;SDS011;53294;47.912;13.526;2022-11-11T17:04:53;10.52;;;6.72;;
66478;SDS011;53294;47.912;13.526;2022-11-11T17:07:32;10.50;;;6.30;;
66478;SDS011;53294;47.912;13.526;2022-11-11T17:12:34;9.90;;;6.43;;
66478;SDS011;53294;47.912;13.526;2022-11-11T17:15:13;59.03;;;30.80;;
66478;SDS011;53294;47.912;13.526;2022-11-11T17:17:41;40.63;;;25.45;;
66478;SDS011;53294;47.912;13.526;2022-11-11T17:20:13;13.00;;;8.30;;
66478;SDS011;53294;47.912;13.526;2022-11-11T17:22:49;10.43;;;6.72;;
66478;SDS011;53294;47.912;13.526;2022-11-11T17:25:20;9.32;;;6.90;;
66478;SDS011;53294;47.912;13.526;2022-11-11T17:27:47;12.57;;;8.55;;
66478;SDS011;53294;47.912;13.526;2022-11-11T17:30:14;12.60;;;9.15;;
66478;SDS011;53294;47.912;13.526;2022-11-11T17:32:41;13.27;;;8.73;;
66478;SDS011;53294;47.912;13.526;2022-11-11T17:35:08;14.55;;;7.88;;
66478;SDS011;53294;47.912;13.526;2022-11-11T17:37:37;14.07;;;9.43;;
66478;SDS011;53294;47.912;13.526;2022-11-11T17:40:07;13.93;;;8.50;;
66478;SDS011;53294;47.912;13.526;2022-11-11T17:42:36;11.20;;;8.30;;
66478;SDS011;53294;47.912;13.526;2022-11-11T17:45:03;34.75;;;20.83;;
66478;SDS011;53294;47.912;13.526;2022-11-11T17:47:30;33.92;;;21.67;;
66478;SDS011;53294;47.912;13.526;2022-11-11T17:49:57;17.83;;;11.77;;
66478;SDS011;53294;47.912;13.526;2022-11-11T17:52:25;11.68;;;8.05;;
66478;SDS011;53294;47.912;13.526;2022-11-11T17:54:52;12.73;;;8.48;;
66478;SDS011;53294;47.912;13.526;2022-11-11T17:57:18;10.93;;;7.40;;
66478;SDS011;53294;47.912;13.526;2022-11-11T17:59:45;10.30;;;7.70;;
66478;SDS011;53294;47.912;13.526;2022-11-11T18:02:12;10.43;;;7.97;;
66478;SDS011;53294;47.912;13.526;2022-11-11T18:04:40;12.23;;;8.57;;